createdAt,value
2018-12-10T00:02:11.713Z,7.10
2018-12-10T00:04:45.306Z,7.00
2018-12-10T00:07:19.633Z,6.90
2018-12-10T00:09:54.018Z,6.90
2018-12-10T00:12:27.747Z,6.90
2018-12-10T00:15:01.537Z,6.90
2018-12-10T00:17:35.241Z,6.80
2018-12-10T00:20:08.977Z,6.80
2018-12-10T00:22:42.836Z,6.80
2018-12-10T00:25:16.547Z,6.80
2018-12-10T00:27:50.146Z,6.80
2018-12-10T00:30:24.502Z,6.80
2018-12-10T00:32:58.183Z,6.80
2018-12-10T00:35:31.784Z,6.80
2018-12-10T00:38:05.639Z,6.80
2018-12-10T00:40:39.207Z,6.80
2018-12-10T00:43:13.103Z,6.70
2018-12-10T00:45:46.675Z,6.70
2018-12-10T00:48:20.466Z,6.60
2018-12-10T00:50:54.032Z,6.60
2018-12-10T00:53:27.626Z,6.60
2018-12-10T00:56:01.294Z,6.70
2018-12-10T00:58:35.144Z,6.70
2018-12-10T01:01:08.943Z,6.70
2018-12-10T01:03:42.660Z,6.70
2018-12-10T01:06:16.360Z,6.70
2018-12-10T01:08:51.046Z,6.70
2018-12-10T01:11:24.762Z,6.60
2018-12-10T01:13:59.294Z,6.60
2018-12-10T01:16:33.018Z,6.50
2018-12-10T01:19:06.672Z,6.50
2018-12-10T01:21:40.354Z,6.50
2018-12-10T01:24:14.083Z,6.50
2018-12-10T01:26:47.835Z,6.50
2018-12-10T01:29:22.196Z,6.60
2018-12-10T01:31:55.713Z,6.60
2018-12-10T01:34:29.313Z,6.60
2018-12-10T01:37:02.840Z,6.60
2018-12-10T01:39:36.542Z,6.60
2018-12-10T01:42:10.062Z,6.60
2018-12-10T01:44:43.740Z,6.60
2018-12-10T01:47:17.743Z,6.60
2018-12-10T01:49:51.286Z,6.60
2018-12-10T01:52:25.563Z,6.60
2018-12-10T01:55:00.007Z,6.60
2018-12-10T01:57:33.721Z,6.60
2018-12-10T02:00:07.316Z,6.60
2018-12-10T02:02:41.758Z,6.60
2018-12-10T02:05:15.428Z,6.60
2018-12-10T02:07:49.158Z,6.60
2018-12-10T02:10:22.667Z,6.60
2018-12-10T02:12:56.312Z,6.60
2018-12-10T02:15:29.922Z,6.50
2018-12-10T02:18:03.539Z,6.50
2018-12-10T02:20:37.311Z,6.50
2018-12-10T02:23:10.852Z,6.50
2018-12-10T02:25:44.555Z,6.50
2018-12-10T02:28:24.786Z,6.50
2018-12-10T02:30:58.469Z,6.50
2018-12-10T02:33:32.179Z,6.50
2018-12-10T02:36:05.985Z,6.60
2018-12-10T02:38:39.733Z,6.50
2018-12-10T02:41:13.301Z,6.50
2018-12-10T02:43:46.923Z,6.50
2018-12-10T02:46:21.433Z,6.50
2018-12-10T02:48:55.112Z,6.50
2018-12-10T02:51:28.921Z,6.40
2018-12-10T02:54:02.780Z,6.40
2018-12-10T02:56:37.152Z,6.40
2018-12-10T02:59:11.087Z,6.30
2018-12-10T03:01:45.555Z,6.40
2018-12-10T03:04:19.107Z,6.30
2018-12-10T03:06:53.601Z,6.30
2018-12-10T03:09:27.229Z,6.30
2018-12-10T03:12:01.555Z,6.30
2018-12-10T03:14:35.248Z,6.30
2018-12-10T03:17:08.863Z,6.30
2018-12-10T03:19:42.663Z,6.30
2018-12-10T03:22:16.976Z,6.30
2018-12-10T03:24:50.660Z,6.30
2018-12-10T03:27:24.274Z,6.30
2018-12-10T03:29:57.855Z,6.30
2018-12-10T03:32:31.466Z,6.30
2018-12-10T03:35:05.113Z,6.30
2018-12-10T03:37:38.684Z,6.30
2018-12-10T03:40:12.286Z,6.30
2018-12-10T03:42:46.037Z,6.30
2018-12-10T03:45:20.511Z,6.30
2018-12-10T03:47:54.120Z,6.20
2018-12-10T03:50:28.427Z,6.30
2018-12-10T03:53:02.104Z,6.20
2018-12-10T03:55:35.743Z,6.30
2018-12-10T03:58:09.243Z,6.30
2018-12-10T04:00:43.210Z,6.30
2018-12-10T04:03:16.761Z,6.30
2018-12-10T04:05:50.351Z,6.30
2018-12-10T04:08:23.905Z,6.30
2018-12-10T04:10:57.465Z,6.30
2018-12-10T04:13:30.990Z,6.30
2018-12-10T04:16:04.678Z,6.20
2018-12-10T04:18:38.250Z,6.30
2018-12-10T04:21:11.847Z,6.30
2018-12-10T04:23:45.458Z,6.30
2018-12-10T04:26:19.042Z,6.20
2018-12-10T04:28:52.581Z,6.20
2018-12-10T04:31:26.218Z,6.20
2018-12-10T04:33:59.774Z,6.10
2018-12-10T04:36:34.303Z,6.10
2018-12-10T04:39:07.896Z,6.10
2018-12-10T04:41:41.422Z,6.10
2018-12-10T04:44:15.108Z,6.10
2018-12-10T04:46:48.685Z,6.10
2018-12-10T04:49:23.096Z,6.10
2018-12-10T04:51:57.431Z,6.10
2018-12-10T04:54:31.103Z,6.10
2018-12-10T04:57:04.871Z,6.10
2018-12-10T04:59:38.609Z,6.00
2018-12-10T05:02:12.202Z,6.00
2018-12-10T05:04:45.760Z,6.00
2018-12-10T05:07:19.479Z,5.90
2018-12-10T05:09:53.007Z,5.90
2018-12-10T05:12:26.812Z,5.90
2018-12-10T05:15:01.269Z,5.90
2018-12-10T05:17:34.925Z,5.90
2018-12-10T05:20:08.508Z,5.90
2018-12-10T05:22:42.136Z,6.00
2018-12-10T05:25:16.505Z,5.90
2018-12-10T05:27:50.184Z,5.90
2018-12-10T05:30:23.843Z,5.90
2018-12-10T05:32:57.531Z,5.90
2018-12-10T05:35:31.087Z,5.90
2018-12-10T05:38:04.736Z,5.90
2018-12-10T05:40:38.329Z,5.70
2018-12-10T05:43:12.213Z,5.60
2018-12-10T05:45:46.726Z,5.20
2018-12-10T05:48:24.206Z,5.20
2018-12-10T05:50:58.076Z,5.00
2018-12-10T05:53:31.812Z,4.90
2018-12-10T05:56:05.355Z,4.70
2018-12-10T05:58:40.117Z,4.60
2018-12-10T06:01:13.970Z,4.50
2018-12-10T06:03:48.439Z,4.60
2018-12-10T06:06:22.042Z,4.50
2018-12-10T06:08:57.853Z,4.50
2018-12-10T06:11:32.415Z,4.40
2018-12-10T06:14:06.120Z,4.30
2018-12-10T06:16:39.809Z,4.40
2018-12-10T06:19:14.387Z,5.60
2018-12-10T06:21:48.159Z,5.60
2018-12-10T06:24:21.800Z,5.50
2018-12-10T06:26:56.351Z,5.20
2018-12-10T06:29:30.060Z,4.90
2018-12-10T06:32:03.733Z,4.70
2018-12-10T06:34:37.312Z,4.70
2018-12-10T06:37:10.874Z,4.60
2018-12-10T06:39:44.517Z,4.70
2018-12-10T06:42:18.805Z,4.80
2018-12-10T06:44:52.563Z,4.70
2018-12-10T06:47:26.355Z,4.80
2018-12-10T06:50:00.139Z,4.80
2018-12-10T06:52:34.025Z,4.80
2018-12-10T06:55:07.645Z,4.80
2018-12-10T06:57:41.370Z,4.80
2018-12-10T07:00:15.183Z,4.90
2018-12-10T07:02:48.808Z,4.90
2018-12-10T07:05:23.310Z,4.90
2018-12-10T07:07:57.063Z,4.90
2018-12-10T07:10:30.604Z,5.00
2018-12-10T07:13:04.210Z,5.10
2018-12-10T07:15:37.846Z,5.10
2018-12-10T07:18:11.480Z,5.20
2018-12-10T07:20:45.233Z,5.30
2018-12-10T07:23:19.607Z,5.30
2018-12-10T07:25:53.207Z,5.30
2018-12-10T07:28:27.010Z,5.30
2018-12-10T07:31:01.610Z,5.30
2018-12-10T07:33:35.287Z,5.30
2018-12-10T07:36:08.946Z,5.30
2018-12-10T07:38:42.503Z,5.40
2018-12-10T07:41:16.209Z,5.40
2018-12-10T07:43:49.966Z,5.40
2018-12-10T07:46:23.774Z,5.40
2018-12-10T07:48:57.334Z,5.40
2018-12-10T07:51:30.972Z,5.40
2018-12-10T07:54:04.576Z,5.50
2018-12-10T07:56:38.287Z,5.50
2018-12-10T07:59:14.173Z,5.50
2018-12-10T08:01:47.863Z,5.50
2018-12-10T08:04:21.586Z,5.60
2018-12-10T08:06:55.286Z,5.60
2018-12-10T08:09:29.659Z,5.60
2018-12-10T08:12:03.363Z,5.60
2018-12-10T08:14:37.165Z,5.60
2018-12-10T08:17:12.897Z,5.60
2018-12-10T08:19:46.663Z,5.60
2018-12-10T08:22:21.145Z,5.70
2018-12-10T08:24:55.304Z,5.70
2018-12-10T08:27:30.301Z,5.60
2018-12-10T08:30:04.735Z,5.70
2018-12-10T08:32:38.532Z,5.70
2018-12-10T08:35:12.273Z,5.70
2018-12-10T08:37:47.514Z,5.90
2018-12-10T08:40:21.075Z,5.80
2018-12-10T08:42:54.619Z,6.00
2018-12-10T08:45:28.352Z,6.00
2018-12-10T08:48:03.088Z,6.00
2018-12-10T08:50:36.689Z,6.00
2018-12-10T08:53:11.057Z,6.10
2018-12-10T08:55:45.842Z,6.10
2018-12-10T08:58:19.599Z,6.10
2018-12-10T09:00:53.378Z,6.10
2018-12-10T09:03:27.081Z,6.10
2018-12-10T09:06:00.800Z,6.20
2018-12-10T09:08:34.377Z,6.10
2018-12-10T09:11:08.034Z,6.10
2018-12-10T09:13:41.734Z,6.10
2018-12-10T09:16:16.041Z,6.20
2018-12-10T09:18:49.806Z,6.20
2018-12-10T09:21:23.652Z,6.30
2018-12-10T09:23:57.565Z,6.40
2018-12-10T09:26:31.156Z,6.50
2018-12-10T09:29:05.608Z,6.60
2018-12-10T09:31:39.413Z,6.50
2018-12-10T09:34:14.999Z,6.50
2018-12-10T09:45:11.926Z,6.70
2018-12-10T09:47:48.215Z,6.80
2018-12-10T09:50:23.866Z,6.80
2018-12-10T09:53:03.128Z,6.80
2018-12-10T09:55:40.147Z,6.90
2018-12-10T09:58:15.086Z,7.10
2018-12-10T10:00:53.741Z,7.10
2018-12-10T10:03:31.971Z,7.20
2018-12-10T10:06:07.756Z,9.20
2018-12-10T10:14:21.339Z,9.20
2018-12-10T10:16:57.156Z,8.30
2018-12-10T10:19:33.515Z,7.80
2018-12-10T10:22:08.963Z,7.80
2018-12-10T10:27:33.397Z,7.30
2018-12-10T10:37:01.760Z,7.00
2018-12-10T10:39:35.515Z,6.90
2018-12-10T10:42:20.947Z,6.80
2018-12-10T10:44:54.692Z,6.80
2018-12-10T10:47:28.448Z,6.90
2018-12-10T10:50:02.792Z,6.90
2018-12-10T10:52:36.724Z,6.90
2018-12-10T10:55:10.565Z,6.80
2018-12-10T10:57:44.404Z,6.80
2018-12-10T11:00:23.823Z,6.90
2018-12-10T11:03:09.478Z,6.90
2018-12-10T11:05:44.074Z,6.80
2018-12-10T11:08:17.810Z,6.80
2018-12-10T11:10:52.247Z,6.90
2018-12-10T11:13:25.946Z,7.10
2018-12-10T11:15:59.511Z,7.10
2018-12-10T11:18:33.266Z,7.20
2018-12-10T11:21:07.938Z,7.30
2018-12-10T11:23:41.754Z,7.30
2018-12-10T11:26:15.564Z,7.30
2018-12-10T11:28:49.303Z,7.40
2018-12-10T11:31:23.920Z,7.30
2018-12-10T11:33:57.687Z,7.30
2018-12-10T11:36:31.461Z,7.10
2018-12-10T11:39:05.163Z,7.10
2018-12-10T11:41:38.948Z,7.30
2018-12-10T11:44:12.656Z,7.40
2018-12-10T11:46:46.273Z,7.40
2018-12-10T11:49:20.673Z,7.50
2018-12-10T11:51:54.463Z,7.50
2018-12-10T11:54:28.489Z,7.50
2018-12-10T11:57:02.142Z,7.50
2018-12-10T11:59:36.639Z,7.50
2018-12-10T12:02:10.362Z,7.40
2018-12-10T12:04:44.126Z,7.20
2018-12-10T12:07:17.735Z,7.10
2018-12-10T12:09:51.430Z,7.00
2018-12-10T12:12:25.964Z,7.10
2018-12-10T12:14:59.803Z,7.10
2018-12-10T12:17:33.591Z,7.20
2018-12-10T12:20:08.174Z,7.40
2018-12-10T12:22:41.770Z,7.40
2018-12-10T12:25:15.361Z,7.40
2018-12-10T12:27:49.121Z,7.30
2018-12-10T12:30:22.951Z,7.40
2018-12-10T12:32:57.539Z,7.40
2018-12-10T12:35:31.274Z,7.40
2018-12-10T12:38:06.150Z,7.40
2018-12-10T12:40:39.840Z,7.30
2018-12-10T12:43:16.128Z,7.30
2018-12-10T12:45:48.253Z,7.30
2018-12-10T12:48:21.968Z,7.20
2018-12-10T12:50:55.704Z,7.30
2018-12-10T12:53:30.528Z,7.40
2018-12-10T12:56:05.042Z,7.50
2018-12-10T12:58:38.678Z,7.50
2018-12-10T13:01:12.389Z,7.50
2018-12-10T13:03:46.188Z,7.50
2018-12-10T13:06:20.695Z,7.50
2018-12-10T13:08:55.339Z,7.50
2018-12-10T13:11:29.004Z,7.50
2018-12-10T13:14:02.738Z,7.50
2018-12-10T13:16:37.230Z,7.60
2018-12-10T13:19:11.938Z,7.60
2018-12-10T13:21:45.660Z,7.60
2018-12-10T13:24:20.195Z,7.50
2018-12-10T13:26:54.335Z,7.50
2018-12-10T13:29:31.386Z,7.50
2018-12-10T13:32:02.320Z,7.40
2018-12-10T13:34:38.042Z,7.30
2018-12-10T13:37:11.745Z,7.20
2018-12-10T13:39:46.380Z,7.10
2018-12-10T13:42:20.040Z,7.10
2018-12-10T13:44:53.720Z,7.00
2018-12-10T13:47:28.228Z,7.00
2018-12-10T13:50:01.833Z,6.90
2018-12-10T13:52:35.944Z,7.00
2018-12-10T13:55:09.593Z,7.00
2018-12-10T13:57:43.377Z,7.00
2018-12-10T14:00:16.938Z,7.00
2018-12-10T14:02:52.172Z,6.90
2018-12-10T14:05:25.810Z,6.90
2018-12-10T14:07:59.614Z,6.90
2018-12-10T14:10:33.476Z,6.90
2018-12-10T14:13:07.330Z,7.00
2018-12-10T14:15:41.010Z,7.00
2018-12-10T14:18:14.604Z,7.00
2018-12-10T14:20:48.170Z,6.90
2018-12-10T14:23:21.872Z,6.90
2018-12-10T14:25:55.665Z,6.90
2018-12-10T14:28:29.464Z,6.80
2018-12-10T14:31:03.079Z,6.80
2018-12-10T14:33:36.768Z,6.70
2018-12-10T14:36:10.527Z,6.70
2018-12-10T14:38:45.092Z,6.70
2018-12-10T14:41:18.674Z,6.60
2018-12-10T14:43:52.259Z,6.80
2018-12-10T14:46:25.846Z,6.90
2018-12-10T14:48:59.570Z,6.90
2018-12-10T14:51:33.137Z,6.90
2018-12-10T14:54:06.862Z,6.80
2018-12-10T14:56:40.471Z,6.80
2018-12-10T14:59:14.101Z,6.80
2018-12-10T15:01:47.687Z,6.70
2018-12-10T15:04:21.309Z,6.70
2018-12-10T15:06:55.926Z,6.60
2018-12-10T15:09:29.492Z,6.60
2018-12-10T15:12:03.242Z,6.60
2018-12-10T15:14:37.725Z,6.60
2018-12-10T15:17:11.345Z,6.60
2018-12-10T15:19:45.121Z,6.60
2018-12-10T15:22:18.773Z,6.70
2018-12-10T15:24:52.572Z,6.60
2018-12-10T15:27:26.578Z,6.60
2018-12-10T15:30:00.189Z,6.50
2018-12-10T15:32:33.987Z,6.40
2018-12-10T15:35:07.810Z,6.20
2018-12-10T15:37:41.557Z,6.00
2018-12-10T15:40:15.860Z,5.90
2018-12-10T15:42:49.547Z,5.80
2018-12-10T15:45:23.307Z,5.70
2018-12-10T15:47:56.911Z,5.70
2018-12-10T15:50:30.533Z,5.60
2018-12-10T15:53:04.290Z,5.60
2018-12-10T15:55:37.827Z,5.70
2018-12-10T15:58:11.545Z,5.70
2018-12-10T16:00:45.127Z,5.70
2018-12-10T16:03:18.726Z,5.70
2018-12-10T16:05:52.447Z,5.70
2018-12-10T16:08:26.194Z,5.70
2018-12-10T16:10:59.949Z,5.70
2018-12-10T16:13:33.503Z,5.70
2018-12-10T16:16:07.229Z,5.70
2018-12-10T16:18:40.753Z,5.70
2018-12-10T16:21:14.316Z,5.70
2018-12-10T16:23:47.980Z,5.70
2018-12-10T16:26:21.592Z,5.80
2018-12-10T16:28:55.190Z,5.80
2018-12-10T16:31:28.885Z,5.70
2018-12-10T16:34:02.570Z,5.70
2018-12-10T16:36:36.257Z,5.70
2018-12-10T16:39:10.012Z,5.70
2018-12-10T16:41:43.629Z,5.80
2018-12-10T16:44:17.288Z,5.80
2018-12-10T16:46:51.679Z,5.80
2018-12-10T16:49:25.220Z,5.80
2018-12-10T16:51:58.814Z,5.80
2018-12-10T16:54:32.585Z,5.80
2018-12-10T16:57:06.297Z,5.80
2018-12-10T16:59:39.949Z,5.70
2018-12-10T17:02:13.524Z,5.70
2018-12-10T17:04:47.135Z,5.80
2018-12-10T17:07:20.716Z,5.70
2018-12-10T17:09:55.753Z,5.70
2018-12-10T17:12:29.365Z,5.70
2018-12-10T17:15:03.346Z,5.70
2018-12-10T17:17:36.983Z,5.60
2018-12-10T17:20:11.033Z,5.70
2018-12-10T17:22:45.522Z,5.70
2018-12-10T17:25:19.281Z,5.70
2018-12-10T17:30:51.492Z,5.80
2018-12-10T17:33:25.271Z,5.80
2018-12-10T17:35:59.092Z,5.90
2018-12-10T17:38:33.061Z,5.90
2018-12-10T17:41:06.957Z,6.00
2018-12-10T17:43:40.787Z,6.00
2018-12-10T17:46:14.659Z,6.10
2018-12-10T17:48:48.675Z,6.10
2018-12-10T17:51:22.617Z,6.10
2018-12-10T17:53:57.445Z,6.10
2018-12-10T17:56:31.151Z,6.10
2018-12-10T17:59:04.808Z,6.10
2018-12-10T18:01:38.550Z,6.00
2018-12-10T18:04:12.549Z,6.00
2018-12-10T18:06:46.373Z,6.00
2018-12-10T18:09:20.133Z,6.00
2018-12-10T18:11:54.525Z,6.00
2018-12-10T18:14:28.372Z,6.00
2018-12-10T18:17:02.275Z,6.10
2018-12-10T18:19:35.890Z,6.10
2018-12-10T18:22:10.713Z,6.10
2018-12-10T18:24:44.619Z,6.20
2018-12-10T18:27:39.930Z,6.10
2018-12-10T18:30:13.520Z,6.20
2018-12-10T18:32:47.200Z,6.10
2018-12-10T18:35:20.799Z,6.10
2018-12-10T18:40:58.858Z,6.10
2018-12-10T18:43:32.593Z,6.10
2018-12-10T18:46:06.569Z,6.10
2018-12-10T18:48:40.438Z,6.10
2018-12-10T18:51:14.969Z,6.20
2018-12-10T18:53:49.578Z,6.20
2018-12-10T18:56:23.345Z,6.20
2018-12-10T18:58:57.571Z,6.30
2018-12-10T19:01:31.568Z,6.30
2018-12-10T19:04:06.316Z,5.70
2018-12-10T19:06:40.239Z,5.00
2018-12-10T19:09:14.151Z,4.40
2018-12-10T19:14:51.657Z,3.40
2018-12-10T19:17:25.408Z,3.20
2018-12-10T19:19:59.836Z,3.20
2018-12-10T19:22:41.583Z,3.20
2018-12-10T19:25:17.171Z,3.40
2018-12-10T19:30:54.927Z,3.40
2018-12-10T19:33:30.075Z,3.40
2018-12-10T19:36:06.845Z,3.40
2018-12-10T19:38:40.918Z,3.40
2018-12-10T19:41:15.871Z,3.50
2018-12-10T19:43:49.691Z,3.60
2018-12-10T19:46:24.716Z,3.60
2018-12-10T19:48:59.465Z,3.70
2018-12-10T19:51:34.475Z,3.60
2018-12-10T19:54:20.740Z,3.70
2018-12-10T19:56:54.832Z,3.70
2018-12-10T19:59:29.602Z,3.70
2018-12-10T20:14:13.390Z,3.50
2018-12-10T20:16:47.169Z,3.40
2018-12-10T20:19:21.491Z,3.40
2018-12-10T20:22:01.659Z,3.40
2018-12-10T20:30:28.904Z,3.30
2018-12-10T20:35:52.274Z,3.30
2018-12-10T20:41:49.621Z,3.30
2018-12-10T20:44:28.506Z,3.30
2018-12-10T20:47:19.922Z,3.30
2018-12-10T20:53:00.761Z,3.20
2018-12-10T20:55:41.614Z,3.20
2018-12-10T21:01:00.701Z,3.20
2018-12-10T21:06:35.611Z,3.20
2018-12-10T21:23:08.847Z,3.20
2018-12-10T21:25:43.187Z,3.20
2018-12-10T21:28:17.797Z,3.20
2018-12-10T21:30:51.789Z,3.30
2018-12-10T21:33:26.355Z,3.30
2018-12-10T21:36:00.241Z,3.30
2018-12-10T21:38:35.537Z,3.30
2018-12-10T21:41:09.429Z,3.30
2018-12-10T21:44:02.862Z,3.30
2018-12-10T21:46:36.838Z,3.30
2018-12-10T22:00:58.129Z,3.60
2018-12-10T22:09:14.087Z,3.70
2018-12-10T22:11:49.701Z,3.70
2018-12-10T22:23:58.699Z,3.70
2018-12-10T22:26:32.631Z,3.70
2018-12-10T22:29:25.720Z,3.70
2018-12-10T22:56:47.641Z,3.50
2018-12-10T23:02:20.075Z,3.60
2018-12-10T23:14:03.639Z,3.60
2018-12-10T23:16:39.404Z,3.60
2018-12-10T23:35:22.914Z,3.70
2018-12-10T23:50:09.339Z,3.40
2018-12-10T23:52:43.162Z,3.40
2018-12-10T23:55:17.657Z,3.30
